Time;durP1;ratioP1;P1;durP2;ratioP2;P2;SDS_P1;SDS_P2;PMS_P1;PMS_P2;Temp;Humidity;BMP_temperature;BMP_pressure;BME280_temperature;BME280_humidity;BME280_pressure;Samples;Min_cycle;Max_cycle;Signal;HPM_P1;HPM_P2
2022/05/17 00:02:18;;;;;;;7.47;4.50;;;20.60;99.90;;;;;;1897436;75;21510;-82
2022/05/17 00:05:11;;;;;;;7.40;4.05;;;20.60;99.90;;;;;;1884947;76;21199;-82
2022/05/17 00:08:02;;;;;;;7.08;4.03;;;20.50;99.90;;;;;;1906983;75;21107;-83
2022/05/17 00:10:54;;;;;;;7.90;3.87;;;20.50;99.90;;;;;;1906791;75;21072;-82
2022/05/17 00:13:47;;;;;;;5.20;4.12;;;20.40;99.90;;;;;;1884847;75;21059;-82
2022/05/17 00:16:39;;;;;;;7.22;3.72;;;20.40;99.90;;;;;;1884804;76;21117;-82
2022/05/17 00:19:31;;;;;;;8.93;4.35;;;20.30;99.90;;;;;;1896298;75;21145;-82
2022/05/17 00:22:23;;;;;;;10.72;3.80;;;20.20;99.90;;;;;;1888041;75;21068;-82
2022/05/17 00:25:17;;;;;;;6.75;4.05;;;20.20;99.90;;;;;;1885600;75;21083;-82
2022/05/17 00:28:10;;;;;;;6.25;3.85;;;20.20;99.90;;;;;;1917097;75;21056;-82
2022/05/17 00:31:02;;;;;;;5.87;3.80;;;20.20;99.90;;;;;;1897766;75;21094;-82
2022/05/17 00:33:54;;;;;;;6.92;3.67;;;20.20;99.90;;;;;;1895028;75;21118;-82
2022/05/17 00:36:45;;;;;;;7.22;4.30;;;20.20;99.90;;;;;;1894844;75;21110;-82
2022/05/17 00:39:37;;;;;;;4.92;3.55;;;20.20;99.90;;;;;;1896797;75;21070;-82
2022/05/17 00:42:29;;;;;;;6.62;3.47;;;20.20;99.90;;;;;;1884174;76;21062;-82
2022/05/17 00:45:21;;;;;;;7.85;3.65;;;20.20;99.90;;;;;;1884266;76;21058;-82
2022/05/17 00:48:13;;;;;;;5.15;3.95;;;20.20;99.90;;;;;;1915605;74;21056;-83
2022/05/17 00:51:05;;;;;;;5.97;3.52;;;20.30;99.90;;;;;;1894695;75;21102;-82
2022/05/17 00:54:02;;;;;;;6.33;4.22;;;20.30;99.90;;;;;;1901111;75;21090;-82
2022/05/17 00:56:57;;;;;;;6.55;4.10;;;20.20;99.90;;;;;;1897311;75;21087;-83
2022/05/17 00:59:53;;;;;;;7.15;3.80;;;20.10;99.90;;;;;;1895058;75;21095;-83
2022/05/17 01:02:49;;;;;;;6.12;4.03;;;20.00;99.90;;;;;;1895211;75;21509;-83
2022/05/17 01:05:43;;;;;;;8.25;4.05;;;19.90;99.90;;;;;;1894806;75;21063;-82
2022/05/17 01:08:35;;;;;;;6.65;4.08;;;19.80;99.90;;;;;;1899287;75;21091;-82
2022/05/17 01:11:27;;;;;;;7.60;4.22;;;19.80;99.90;;;;;;1906620;74;21172;-83
2022/05/17 01:17:30;;;;;;;4.62;3.95;;;19.60;99.90;;;;;;1904697;74;21482;-82
2022/05/17 01:20:22;;;;;;;7.20;3.70;;;19.50;99.90;;;;;;1904404;74;21156;-82
2022/05/17 01:23:13;;;;;;;6.85;4.20;;;19.50;99.90;;;;;;1907808;74;21085;-82
2022/05/17 01:26:05;;;;;;;5.40;3.75;;;19.50;99.90;;;;;;1907663;74;21124;-82
2022/05/17 01:28:57;;;;;;;7.37;3.83;;;19.50;99.90;;;;;;1895217;74;21050;-82
2022/05/17 01:31:51;;;;;;;5.37;3.75;;;19.50;99.90;;;;;;1919717;74;21055;-82
2022/05/17 01:34:42;;;;;;;5.75;4.08;;;19.60;99.90;;;;;;1905302;74;21120;-82
2022/05/17 01:37:33;;;;;;;6.53;3.83;;;19.70;99.90;;;;;;1909503;74;21072;-83
2022/05/17 01:40:27;;;;;;;7.47;4.15;;;19.70;99.90;;;;;;1894012;74;21066;-82
2022/05/17 01:43:18;;;;;;;8.20;4.20;;;19.70;99.90;;;;;;1921475;74;21114;-83
2022/05/17 01:46:11;;;;;;;9.30;3.90;;;19.60;99.90;;;;;;1926496;74;21047;-82
2022/05/17 01:49:02;;;;;;;6.60;3.90;;;19.50;99.90;;;;;;1909827;74;21550;-83
2022/05/17 01:51:54;;;;;;;5.58;4.25;;;19.40;99.90;;;;;;1916045;74;21063;-82
2022/05/17 01:54:45;;;;;;;6.62;3.62;;;19.40;99.90;;;;;;1915595;74;21059;-82
2022/05/17 01:57:37;;;;;;;7.17;4.45;;;19.40;99.90;;;;;;1916255;74;21130;-82
2022/05/17 02:00:30;;;;;;;8.53;4.05;;;19.30;99.90;;;;;;1910813;74;21132;-82
2022/05/17 02:03:22;;;;;;;6.65;3.75;;;19.30;99.90;;;;;;1905987;74;21039;-83
2022/05/17 02:06:13;;;;;;;6.67;4.17;;;19.30;99.90;;;;;;1897704;74;21133;-83
2022/05/17 02:09:05;;;;;;;6.65;4.22;;;19.20;99.90;;;;;;1915930;74;21109;-83
2022/05/17 02:11:58;;;;;;;8.40;4.40;;;19.20;99.90;;;;;;1888399;74;21083;-83
2022/05/17 02:14:50;;;;;;;6.20;4.15;;;19.10;99.90;;;;;;1885420;75;21047;-83
2022/05/17 02:17:42;;;;;;;7.60;4.55;;;19.00;99.90;;;;;;1894810;75;21549;-83
2022/05/17 02:20:35;;;;;;;8.20;4.50;;;18.80;99.90;;;;;;1894733;75;21143;-83
2022/05/17 02:23:28;;;;;;;7.15;3.98;;;18.90;99.90;;;;;;1896485;75;21098;-83
2022/05/17 02:26:23;;;;;;;6.35;3.95;;;19.10;99.90;;;;;;1899625;75;21063;-82
2022/05/17 02:29:15;;;;;;;5.65;3.67;;;19.20;99.90;;;;;;1893866;75;21608;-83
2022/05/17 02:32:07;;;;;;;6.85;4.20;;;19.20;99.90;;;;;;1893759;75;21060;-83
2022/05/17 02:34:59;;;;;;;7.47;4.10;;;19.20;99.90;;;;;;1893728;75;21580;-83
2022/05/17 02:37:50;;;;;;;7.87;4.28;;;19.30;99.90;;;;;;1872344;77;21144;-83
2022/05/17 02:40:42;;;;;;;5.75;4.05;;;19.30;99.90;;;;;;1885164;75;21056;-82
2022/05/17 02:43:33;;;;;;;9.60;4.40;;;19.30;99.90;;;;;;1897384;75;21095;-82
2022/05/17 02:46:28;;;;;;;6.65;4.22;;;19.30;99.90;;;;;;1887056;75;21169;-82
2022/05/17 02:49:19;;;;;;;7.72;4.30;;;19.20;99.90;;;;;;1897461;75;21473;-82
2022/05/17 02:52:10;;;;;;;6.87;4.20;;;19.20;99.90;;;;;;1898020;75;21118;-84
2022/05/17 02:55:02;;;;;;;7.17;4.45;;;19.20;99.90;;;;;;1886233;75;21047;-83
2022/05/17 02:57:55;;;;;;;6.75;4.20;;;19.10;99.90;;;;;;1894199;75;21103;-83
2022/05/17 03:00:46;;;;;;;8.63;3.72;;;19.10;99.90;;;;;;1891697;75;21052;-82
2022/05/17 03:03:40;;;;;;;7.22;4.42;;;19.10;99.90;;;;;;1886956;75;21501;-83
2022/05/17 03:06:31;;;;;;;6.85;4.45;;;19.10;99.90;;;;;;1872783;75;21534;-82
2022/05/17 03:09:23;;;;;;;6.80;3.98;;;19.20;99.90;;;;;;1894231;75;21095;-82
2022/05/17 03:12:15;;;;;;;5.00;3.77;;;19.20;99.90;;;;;;1893003;75;21155;-82
2022/05/17 03:15:08;;;;;;;6.42;4.20;;;19.20;99.90;;;;;;1887845;75;21095;-82
2022/05/17 03:18:00;;;;;;;5.62;3.72;;;19.20;99.90;;;;;;1906100;75;21818;-82
2022/05/17 03:20:52;;;;;;;6.83;4.35;;;19.20;99.90;;;;;;1905978;75;21059;-82
2022/05/17 03:23:43;;;;;;;9.38;3.98;;;19.10;99.90;;;;;;1906270;75;21149;-82
2022/05/17 03:26:35;;;;;;;4.92;4.40;;;19.00;99.90;;;;;;1901559;75;21051;-82
2022/05/17 03:29:27;;;;;;;7.45;4.42;;;19.10;99.90;;;;;;1896445;75;21044;-82
2022/05/17 03:32:18;;;;;;;7.50;4.60;;;19.10;99.90;;;;;;1882796;75;21158;-83
2022/05/17 03:35:11;;;;;;;6.95;4.00;;;19.00;99.90;;;;;;1902405;75;21095;-82
2022/05/17 03:38:03;;;;;;;6.67;4.28;;;19.00;99.90;;;;;;1891442;75;21173;-82
2022/05/17 03:40:55;;;;;;;5.65;4.28;;;18.90;99.90;;;;;;1902455;75;21199;-82
2022/05/17 03:43:47;;;;;;;6.55;4.50;;;18.90;99.90;;;;;;1893730;75;21161;-82
2022/05/17 03:46:39;;;;;;;8.28;4.85;;;18.90;99.90;;;;;;1911707;75;21063;-82
2022/05/17 03:49:32;;;;;;;7.03;3.98;;;19.00;99.90;;;;;;1906008;75;21052;-82
2022/05/17 03:52:26;;;;;;;7.00;4.33;;;18.90;99.90;;;;;;1889686;75;21151;-82
2022/05/17 03:55:18;;;;;;;5.62;4.30;;;18.90;99.90;;;;;;1885404;75;21056;-82
2022/05/17 03:58:11;;;;;;;8.63;4.50;;;18.90;99.90;;;;;;1886233;75;21055;-81
2022/05/17 04:01:03;;;;;;;7.67;4.45;;;18.90;99.90;;;;;;1906309;75;21676;-82
2022/05/17 04:03:55;;;;;;;8.70;4.42;;;18.90;99.90;;;;;;1904734;75;21148;-82
2022/05/17 04:06:47;;;;;;;9.88;5.25;;;18.90;99.90;;;;;;1899220;75;21161;-83
2022/05/17 04:09:39;;;;;;;7.05;4.47;;;18.80;99.90;;;;;;1872826;75;21102;-82
2022/05/17 04:12:30;;;;;;;8.28;4.67;;;18.80;99.90;;;;;;1916092;74;21067;-82
2022/05/17 04:15:24;;;;;;;8.45;4.92;;;18.80;99.90;;;;;;1910969;74;21124;-82
2022/05/17 04:18:17;;;;;;;8.78;4.85;;;18.80;99.90;;;;;;1915703;74;21105;-82
2022/05/17 04:21:09;;;;;;;7.45;4.95;;;18.90;99.90;;;;;;1912087;74;21567;-83
2022/05/17 04:24:00;;;;;;;12.58;6.40;;;18.90;99.90;;;;;;1910938;74;21119;-82
2022/05/17 04:26:52;;;;;;;8.30;4.42;;;18.90;99.90;;;;;;1910776;74;21113;-82
2022/05/17 04:29:43;;;;;;;8.03;4.10;;;18.90;99.90;;;;;;1914930;74;21058;-82
2022/05/17 04:32:35;;;;;;;8.33;4.45;;;18.80;99.90;;;;;;1913351;74;21098;-83
2022/05/17 04:35:27;;;;;;;6.25;4.75;;;18.90;99.90;;;;;;1902559;74;21831;-82
2022/05/17 04:38:19;;;;;;;8.58;4.60;;;18.90;99.90;;;;;;1922477;74;21188;-82
2022/05/17 04:41:11;;;;;;;9.30;5.00;;;18.80;99.90;;;;;;1919946;74;21471;-82
2022/05/17 04:44:03;;;;;;;6.45;4.47;;;18.80;99.90;;;;;;1914974;74;21042;-82
2022/05/17 04:46:55;;;;;;;7.67;4.10;;;18.80;99.90;;;;;;1901056;74;21081;-82
2022/05/17 04:49:46;;;;;;;7.70;4.50;;;18.90;99.90;;;;;;1912338;74;21189;-84
2022/05/17 04:52:38;;;;;;;6.62;4.00;;;18.80;99.90;;;;;;1932745;74;21128;-81
2022/05/17 04:55:29;;;;;;;5.83;4.35;;;18.90;99.90;;;;;;1917023;74;21167;-81
2022/05/17 04:58:22;;;;;;;5.37;4.20;;;18.90;99.90;;;;;;1921855;74;21126;-81
2022/05/17 05:01:14;;;;;;;7.70;4.83;;;18.90;99.90;;;;;;1905350;74;21124;-81
2022/05/17 05:04:06;;;;;;;5.97;4.40;;;18.80;99.90;;;;;;1912447;73;21184;-81
2022/05/17 05:06:58;;;;;;;9.85;5.33;;;18.90;99.90;;;;;;1912706;73;21171;-81
2022/05/17 05:09:51;;;;;;;8.23;5.70;;;19.00;99.90;;;;;;1901509;74;21183;-81
2022/05/17 05:12:43;;;;;;;9.00;5.15;;;19.00;99.90;;;;;;1918087;73;21086;-81
2022/05/17 05:15:36;;;;;;;6.67;5.08;;;19.20;99.90;;;;;;1920391;74;21152;-81
2022/05/17 05:18:28;;;;;;;8.60;4.78;;;19.20;99.90;;;;;;1922135;73;21129;-81
2022/05/17 05:21:20;;;;;;;6.97;4.55;;;19.20;99.90;;;;;;1911249;74;21440;-81
2022/05/17 05:24:12;;;;;;;7.75;4.60;;;19.20;99.90;;;;;;1921947;74;21191;-81
2022/05/17 05:27:04;;;;;;;8.03;4.80;;;19.20;99.90;;;;;;1925270;74;21579;-82
2022/05/17 05:29:56;;;;;;;7.62;4.65;;;19.30;99.90;;;;;;1912711;74;21109;-82
2022/05/17 05:32:48;;;;;;;7.53;4.55;;;19.40;99.90;;;;;;1907341;73;21121;-81
2022/05/17 05:35:39;;;;;;;7.45;4.40;;;19.40;99.90;;;;;;1921865;74;21118;-81
2022/05/17 05:38:31;;;;;;;6.25;4.53;;;19.40;99.90;;;;;;1904467;74;21144;-81
2022/05/17 05:41:23;;;;;;;8.03;5.22;;;19.50;99.90;;;;;;1911289;74;21577;-81
2022/05/17 05:44:14;;;;;;;7.85;4.87;;;19.50;99.90;;;;;;1915686;74;21059;-81
2022/05/17 05:47:06;;;;;;;7.67;5.42;;;19.60;99.90;;;;;;1904157;74;21096;-81
2022/05/17 05:49:58;;;;;;;7.75;4.75;;;19.60;99.90;;;;;;1921988;74;21596;-81
2022/05/17 05:52:51;;;;;;;6.85;4.92;;;19.70;99.90;;;;;;1922061;74;21522;-81
2022/05/17 05:55:43;;;;;;;8.13;4.65;;;19.70;99.90;;;;;;1917930;74;21145;-81
2022/05/17 05:58:37;;;;;;;7.28;4.55;;;19.60;99.90;;;;;;1913264;74;21054;-81
2022/05/17 06:01:28;;;;;;;9.35;5.37;;;19.70;99.90;;;;;;1901677;74;21129;-81
2022/05/17 06:04:19;;;;;;;7.72;4.47;;;19.70;99.90;;;;;;1899259;74;21084;-81
2022/05/17 06:07:13;;;;;;;7.35;4.80;;;19.80;99.90;;;;;;1920014;74;21062;-81
2022/05/17 06:10:07;;;;;;;6.22;4.50;;;19.80;99.90;;;;;;1914651;74;21227;-81
2022/05/17 06:13:00;;;;;;;7.17;4.70;;;19.80;99.90;;;;;;1922247;74;21053;-81
2022/05/17 06:15:55;;;;;;;11.45;4.80;;;19.90;99.90;;;;;;1898671;74;21103;-82
2022/05/17 06:18:48;;;;;;;7.70;4.80;;;20.00;99.90;;;;;;1903882;74;21074;-79
2022/05/17 06:21:40;;;;;;;7.67;4.45;;;20.10;99.90;;;;;;1926399;74;21116;-79
2022/05/17 06:24:32;;;;;;;11.38;5.25;;;20.20;99.90;;;;;;1906413;74;21581;-79
2022/05/17 06:27:23;;;;;;;11.57;5.65;;;20.20;99.90;;;;;;1902764;74;21094;-79
2022/05/17 06:30:16;;;;;;;7.53;4.75;;;20.30;99.90;;;;;;1900858;74;21101;-79
2022/05/17 06:33:11;;;;;;;9.13;4.40;;;20.30;99.90;;;;;;1893126;76;21089;-79
2022/05/17 06:36:03;;;;;;;9.23;4.75;;;20.40;99.90;;;;;;1908524;74;21490;-79
2022/05/17 06:38:56;;;;;;;9.10;4.47;;;20.50;99.90;;;;;;1893501;74;21065;-79
2022/05/17 06:41:47;;;;;;;12.05;4.35;;;20.60;99.90;;;;;;1898985;74;21059;-79
2022/05/17 06:44:40;;;;;;;10.93;4.65;;;20.70;99.90;;;;;;1904255;74;21670;-79
2022/05/17 06:47:31;;;;;;;8.98;4.72;;;20.80;99.90;;;;;;1907729;74;21181;-78
2022/05/17 06:50:26;;;;;;;9.10;5.28;;;20.90;99.90;;;;;;1904787;74;21494;-78
2022/05/17 06:53:18;;;;;;;11.40;4.28;;;20.80;99.90;;;;;;1903392;74;21086;-78
2022/05/17 06:56:10;;;;;;;7.33;4.33;;;20.90;99.90;;;;;;1901541;74;21096;-79
2022/05/17 06:59:02;;;;;;;9.23;4.28;;;20.90;99.90;;;;;;1893127;76;21141;-78
2022/05/17 07:01:54;;;;;;;10.48;4.90;;;21.00;99.90;;;;;;1893060;76;21091;-79
2022/05/17 07:04:45;;;;;;;9.28;4.90;;;21.00;99.90;;;;;;1925084;74;21067;-78
2022/05/17 07:07:37;;;;;;;12.20;4.70;;;21.10;99.90;;;;;;1903778;74;21146;-79
2022/05/17 07:13:37;;;;;;;9.00;4.95;;;21.20;99.90;;;;;;1913545;74;21058;-79
2022/05/17 07:16:29;;;;;;;8.33;4.42;;;21.30;99.90;;;;;;1913682;74;21546;-79
2022/05/17 07:19:21;;;;;;;8.23;4.75;;;21.40;99.90;;;;;;1922341;74;21159;-79
2022/05/17 07:22:15;;;;;;;12.45;5.47;;;21.40;99.90;;;;;;1921866;74;21062;-79
2022/05/17 07:25:10;;;;;;;7.17;4.65;;;21.60;99.90;;;;;;1885449;74;21167;-78
2022/05/17 07:28:04;;;;;;;14.68;4.50;;;21.70;99.90;;;;;;1915050;74;21050;-78
2022/05/17 07:31:02;;;;;;;8.70;5.20;;;21.70;99.90;;;;;;1912899;74;21062;-79
2022/05/17 07:33:58;;;;;;;12.18;5.17;;;21.80;99.90;;;;;;1910740;74;21054;-80
2022/05/17 07:36:51;;;;;;;12.13;5.10;;;21.90;99.90;;;;;;1910838;74;21068;-78
2022/05/17 07:39:44;;;;;;;9.58;4.97;;;22.00;99.90;;;;;;1910785;74;21120;-79
2022/05/17 07:42:37;;;;;;;16.17;4.95;;;22.10;99.90;;;;;;1915333;74;21050;-79
2022/05/17 07:45:29;;;;;;;8.53;4.50;;;22.10;99.90;;;;;;1899791;74;21122;-80
2022/05/17 07:48:27;;;;;;;12.33;5.03;;;22.20;99.90;;;;;;1906471;74;21546;-79
2022/05/17 07:51:21;;;;;;;;;;;22.20;99.90;;;;;;1915742;74;21165;-79
2022/05/17 07:54:13;;;;;;;11.45;4.35;;;22.30;99.90;;;;;;1912583;74;20119;-79
2022/05/17 07:57:06;;;;;;;10.93;4.08;;;22.30;99.90;;;;;;1899915;75;21062;-79
2022/05/17 07:59:59;;;;;;;8.65;4.72;;;22.40;99.90;;;;;;1922082;74;21120;-79
2022/05/17 08:02:56;;;;;;;18.05;4.70;;;22.50;99.90;;;;;;1921932;74;21136;-79
2022/05/17 08:05:50;;;;;;;9.25;4.28;;;22.50;99.90;;;;;;1921864;74;21106;-79
2022/05/17 08:08:42;;;;;;;12.47;4.28;;;22.60;99.90;;;;;;1899751;75;21058;-78
2022/05/17 08:11:37;;;;;;;12.00;4.20;;;22.70;99.90;;;;;;1913052;74;21058;-79
2022/05/17 08:14:32;;;;;;;11.40;4.00;;;22.80;99.90;;;;;;1932778;74;21533;-79
2022/05/17 08:17:25;;;;;;;9.10;4.33;;;22.80;99.90;;;;;;1911090;74;22221;-78
2022/05/17 08:20:18;;;;;;;9.60;4.30;;;23.00;99.90;;;;;;1887095;75;21128;-78
2022/05/17 08:29:34;;;;;;;6.78;3.75;;;23.20;99.90;;;;;;1817941;77;21124;-78
2022/05/17 08:36:09;;;;;;;7.72;4.10;;;23.30;99.90;;;;;;1910123;75;21655;-78
2022/05/17 08:39:19;;;;;;;7.28;4.20;;;23.40;99.90;;;;;;1897412;74;21483;-78
2022/05/17 08:42:15;;;;;;;9.08;4.03;;;23.60;99.90;;;;;;1917793;74;21115;-79
2022/05/17 08:45:11;;;;;;;6.50;3.67;;;23.60;99.90;;;;;;1916127;74;21103;-78
2022/05/17 08:48:06;;;;;;;7.90;3.80;;;23.70;99.90;;;;;;1920853;74;21048;-78
2022/05/17 08:50:57;;;;;;;6.45;3.92;;;23.70;99.90;;;;;;1920169;74;21145;-78
2022/05/17 08:53:50;;;;;;;7.17;3.90;;;23.80;99.90;;;;;;1923682;74;21190;-78
2022/05/17 08:56:48;;;;;;;6.12;3.70;;;23.90;99.90;;;;;;1895574;74;21115;-78
2022/05/17 08:59:41;;;;;;;6.05;3.90;;;24.00;99.90;;;;;;1914610;74;21566;-78
2022/05/17 09:02:36;;;;;;;7.10;3.47;;;24.00;99.90;;;;;;1920849;74;21185;-78
2022/05/17 09:05:36;;;;;;;7.25;3.20;;;24.20;99.90;;;;;;1919813;74;21132;-78
2022/05/17 09:08:31;;;;;;;8.53;3.12;;;24.20;99.90;;;;;;1892820;75;21115;-78
2022/05/17 09:11:25;;;;;;;5.40;3.37;;;24.30;99.90;;;;;;1890239;74;21115;-78
2022/05/17 09:14:19;;;;;;;8.33;3.77;;;24.40;99.90;;;;;;1901194;74;21080;-78
2022/05/17 09:17:14;;;;;;;8.38;3.55;;;24.50;99.90;;;;;;1897043;75;21205;-78
2022/05/17 09:20:09;;;;;;;7.30;3.55;;;24.60;99.90;;;;;;1909353;75;21062;-78
2022/05/17 09:23:03;;;;;;;5.22;3.02;;;24.70;99.90;;;;;;1913716;74;21198;-78
2022/05/17 09:26:05;;;;;;;5.47;3.70;;;24.80;99.90;;;;;;1908528;74;21129;-78
2022/05/17 09:29:01;;;;;;;8.03;3.30;;;24.80;99.90;;;;;;1910552;75;21067;-78
2022/05/17 09:31:55;;;;;;;6.53;3.30;;;24.90;99.90;;;;;;1890311;74;21130;-78
2022/05/17 09:34:50;;;;;;;6.05;3.27;;;24.90;99.90;;;;;;1913332;74;21704;-78
2022/05/17 09:37:44;;;;;;;7.05;3.75;;;25.10;99.90;;;;;;1919443;74;21204;-78
2022/05/17 09:40:38;;;;;;;7.97;3.30;;;25.10;99.90;;;;;;1892127;75;21105;-78
2022/05/17 09:43:44;;;;;;;8.85;3.22;;;25.20;99.90;;;;;;1917249;74;21052;-78
2022/05/17 09:46:39;;;;;;;6.45;3.52;;;25.20;99.90;;;;;;1928144;74;21051;-78
2022/05/17 09:52:45;;;;;;;7.65;3.62;;;25.30;99.90;;;;;;1923797;74;21113;-78
2022/05/17 09:55:37;;;;;;;5.87;3.55;;;25.30;99.90;;;;;;1849706;77;21177;-78
2022/05/17 09:58:34;;;;;;;6.83;3.60;;;25.40;99.90;;;;;;1852854;77;21684;-78
2022/05/17 10:04:12;;;;;;;5.40;3.40;;;25.30;99.90;;;;;;1951853;72;22118;-78
2022/05/17 10:07:25;;;;;;;7.12;3.60;;;25.40;99.90;;;;;;1906741;75;21112;-78
2022/05/17 10:10:38;;;;;;;5.70;3.22;;;25.40;99.90;;;;;;1906955;75;21055;-78
2022/05/17 10:13:33;;;;;;;4.92;3.37;;;25.40;99.90;;;;;;1902754;75;21091;-79
2022/05/17 10:16:47;;;;;;;5.12;3.35;;;25.40;99.90;;;;;;1902858;75;21060;-78
2022/05/17 10:19:44;;;;;;;10.30;3.55;;;25.50;99.90;;;;;;1898174;75;21051;-79
2022/05/17 10:22:39;;;;;;;7.28;3.80;;;25.60;99.90;;;;;;1895235;75;21047;-79
2022/05/17 10:25:35;;;;;;;9.45;3.05;;;25.70;99.90;;;;;;1912316;75;21530;-78
2022/05/17 10:28:34;;;;;;;5.80;3.02;;;25.70;99.90;;;;;;1906901;75;21058;-78
2022/05/17 10:31:53;;;;;;;6.37;3.37;;;25.80;99.90;;;;;;1903968;75;21146;-78
2022/05/17 10:35:07;;;;;;;5.90;3.02;;;25.80;99.90;;;;;;1908760;75;21048;-78
2022/05/17 10:38:02;;;;;;;4.78;2.90;;;25.90;99.90;;;;;;1898259;75;21171;-77
2022/05/17 10:40:57;;;;;;;7.20;3.45;;;26.00;99.90;;;;;;1899951;75;21145;-78
2022/05/17 10:43:49;;;;;;;5.65;3.52;;;26.00;99.90;;;;;;1906872;75;21141;-78
2022/05/17 10:46:48;;;;;;;6.22;3.55;;;26.10;99.90;;;;;;1910245;75;21045;-78
2022/05/17 10:49:41;;;;;;;4.80;3.27;;;26.10;99.90;;;;;;1900105;75;21098;-78
2022/05/17 10:52:38;;;;;;;6.85;3.20;;;26.10;99.90;;;;;;1897093;75;21083;-78
2022/05/17 10:55:35;;;;;;;7.95;3.30;;;26.10;99.90;;;;;;1884860;76;21105;-78
2022/05/17 10:58:34;;;;;;;6.60;3.62;;;26.10;99.90;;;;;;1897520;75;21112;-78
2022/05/17 11:01:30;;;;;;;14.58;3.70;;;26.10;99.90;;;;;;1895540;75;21058;-78
2022/05/17 11:04:36;;;;;;;6.95;3.98;;;26.00;99.90;;;;;;1886357;75;21210;-77
2022/05/17 11:07:40;;;;;;;8.15;4.08;;;26.20;99.90;;;;;;1895301;75;21067;-77
2022/05/17 11:10:38;;;;;;;7.35;3.87;;;26.30;99.90;;;;;;1883639;75;21184;-78
2022/05/17 11:13:33;;;;;;;6.90;3.40;;;26.40;99.90;;;;;;1887162;75;21054;-77
2022/05/17 11:16:27;;;;;;;6.72;3.58;;;26.40;99.90;;;;;;1897673;75;21084;-78
2022/05/17 11:22:17;;;;;;;8.60;3.87;;;26.60;99.90;;;;;;1947545;72;22126;-78
2022/05/17 11:25:39;;;;;;;5.50;3.30;;;26.60;99.90;;;;;;1922759;73;21098;-78
2022/05/17 11:29:03;;;;;;;6.25;3.60;;;26.70;99.90;;;;;;1928530;73;21039;-78
2022/05/17 11:31:58;;;;;;;8.25;3.92;;;26.70;99.90;;;;;;1923596;73;21059;-78
2022/05/17 11:35:30;;;;;;;6.20;3.47;;;26.80;99.90;;;;;;1917411;75;21160;-77
2022/05/17 11:38:43;;;;;;;10.10;3.87;;;26.90;99.90;;;;;;1917411;73;21190;-79
2022/05/17 11:41:46;;;;;;;7.75;3.60;;;27.10;99.90;;;;;;1917418;75;21137;-79
2022/05/17 11:44:44;;;;;;;7.15;3.90;;;27.30;99.90;;;;;;1917645;75;21108;-78
2022/05/17 11:47:43;;;;;;;8.15;3.12;;;27.40;99.90;;;;;;1917693;75;21505;-78
2022/05/17 11:50:48;;;;;;;6.45;3.45;;;27.50;99.90;;;;;;1917373;75;21129;-78
2022/05/17 11:53:50;;;;;;;8.70;3.75;;;27.50;99.90;;;;;;1917592;75;21066;-78
2022/05/17 11:56:42;;;;;;;6.78;3.55;;;27.70;99.90;;;;;;1917118;73;21070;-78
2022/05/17 11:59:47;;;;;;;9.40;3.52;;;27.80;99.90;;;;;;1882016;76;21165;-78
2022/05/17 12:02:45;;;;;;;5.42;2.65;;;28.00;99.90;;;;;;1940254;73;21063;-78
2022/05/17 12:05:58;;;;;;;6.05;3.17;;;28.00;99.90;;;;;;1939334;73;21095;-79
2022/05/17 12:08:49;;;;;;;5.53;3.30;;;27.90;99.90;;;;;;1917592;75;21093;-78
2022/05/17 12:11:49;;;;;;;7.97;2.95;;;27.70;99.90;;;;;;1933943;73;21059;-79
2022/05/17 12:14:44;;;;;;;7.80;3.33;;;27.70;99.90;;;;;;1917102;75;21568;-78
2022/05/17 12:17:39;;;;;;;8.18;3.27;;;27.70;99.90;;;;;;1948542;73;21101;-78
2022/05/17 12:20:38;;;;;;;6.75;3.08;;;27.70;99.90;;;;;;1947500;73;21506;-78
2022/05/17 12:23:33;;;;;;;6.40;3.40;;;27.80;99.90;;;;;;1901206;74;21090;-79
2022/05/17 12:26:28;;;;;;;7.87;3.58;;;27.90;99.90;;;;;;1925016;73;21071;-78
2022/05/17 12:32:35;;;;;;;6.05;3.40;;;28.10;99.90;;;;;;1917582;74;21127;-78
2022/05/17 12:35:42;;;;;;;5.30;3.25;;;28.00;99.90;;;;;;1901546;74;21547;-78
2022/05/17 12:45:01;;;;;;;7.35;3.42;;;28.20;99.90;;;;;;1860677;75;21094;-78
2022/05/17 12:47:54;;;;;;;5.87;2.98;;;28.30;99.90;;;;;;1843256;75;21093;-78
2022/05/17 12:50:49;;;;;;;6.00;3.42;;;28.40;99.90;;;;;;1821827;77;21212;-79
2022/05/17 12:53:43;;;;;;;4.03;2.87;;;28.40;99.90;;;;;;1851732;75;21072;-79
2022/05/17 12:56:43;;;;;;;4.12;2.40;;;28.30;99.90;;;;;;1853293;77;21061;-78
2022/05/17 12:59:36;;;;;;;8.00;3.35;;;28.40;99.90;;;;;;1853272;77;21168;-78
2022/05/17 13:02:28;;;;;;;5.10;2.83;;;28.50;99.90;;;;;;1853123;77;21703;-78
2022/05/17 13:05:33;;;;;;;7.20;3.27;;;28.60;99.90;;;;;;1853590;76;21085;-78
2022/05/17 13:08:27;;;;;;;7.00;3.65;;;28.70;99.90;;;;;;1837463;77;21135;-78
2022/05/17 13:11:25;;;;;;;5.42;2.80;;;28.80;99.90;;;;;;1854505;77;21522;-78
2022/05/17 13:14:23;;;;;;;4.05;3.27;;;28.80;99.90;;;;;;1854487;77;21100;-78
2022/05/17 13:19:59;;;;;;;6.30;3.50;;;28.90;99.90;;;;;;1954766;72;22624;-78
2022/05/17 13:23:11;;;;;;;4.33;3.50;;;28.90;99.90;;;;;;1902144;75;21585;-77
2022/05/17 13:26:26;;;;;;;7.40;3.15;;;29.00;99.90;;;;;;1901762;75;21047;-78
2022/05/17 13:29:23;;;;;;;4.72;2.80;;;29.20;99.90;;;;;;1884854;75;21520;-78
2022/05/17 13:32:37;;;;;;;6.37;3.25;;;29.30;99.90;;;;;;1897667;75;21027;-79
2022/05/17 13:35:31;;;;;;;5.60;2.95;;;29.30;99.90;;;;;;1895708;75;21051;-79
2022/05/17 13:38:25;;;;;;;7.70;2.55;;;29.40;99.90;;;;;;1890581;75;21577;-79
2022/05/17 13:41:24;;;;;;;8.23;2.70;;;29.40;99.90;;;;;;1884820;76;21058;-78
2022/05/17 13:44:33;;;;;;;7.22;2.87;;;29.50;99.90;;;;;;1902502;75;21738;-79
2022/05/17 13:47:28;;;;;;;5.20;2.75;;;29.60;99.90;;;;;;1900824;75;21048;-79
2022/05/17 13:50:33;;;;;;;6.47;3.00;;;30.10;99.90;;;;;;1898937;75;21185;-78
2022/05/17 13:53:26;;;;;;;7.62;3.27;;;30.20;99.90;;;;;;1895541;75;21076;-78
2022/05/17 13:56:19;;;;;;;8.48;2.60;;;30.50;99.90;;;;;;1895657;75;21598;-78
2022/05/17 13:59:14;;;;;;;7.17;2.60;;;30.80;99.90;;;;;;1895766;75;21091;-78
2022/05/17 14:02:12;;;;;;;8.15;3.30;;;30.90;99.20;;;;;;1901833;75;21088;-78
2022/05/17 14:05:20;;;;;;;3.17;2.70;;;31.10;98.60;;;;;;1897797;75;21136;-79
2022/05/17 14:11:50;;;;;;;5.97;3.00;;;31.50;96.70;;;;;;1897141;75;21160;-78
2022/05/17 14:14:43;;;;;;;3.98;2.77;;;31.80;96.20;;;;;;1905187;75;21047;-78
2022/05/17 14:17:36;;;;;;;4.70;2.52;;;31.80;95.30;;;;;;1906753;75;21092;-79
2022/05/17 14:20:28;;;;;;;3.58;2.55;;;32.10;93.60;;;;;;1914683;74;21118;-78
2022/05/17 14:23:19;;;;;;;5.05;2.20;;;32.10;94.30;;;;;;1914417;74;21134;-78
2022/05/17 14:26:12;;;;;;;6.17;1.90;;;32.30;92.50;;;;;;1912166;74;21312;-78
2022/05/17 14:29:03;;;;;;;5.17;2.00;;;32.40;87.80;;;;;;1916543;74;21135;-79
2022/05/17 14:31:57;;;;;;;5.12;2.50;;;32.30;88.20;;;;;;1915516;74;21070;-78
2022/05/17 14:34:51;;;;;;;6.85;2.40;;;32.20;88.40;;;;;;1915603;74;21183;-78
2022/05/17 14:37:42;;;;;;;3.83;2.12;;;32.50;88.90;;;;;;1911299;74;21112;-78
2022/05/17 14:40:35;;;;;;;5.92;2.02;;;32.80;84.40;;;;;;1905975;74;21075;-78
2022/05/17 14:43:26;;;;;;;4.42;2.15;;;33.10;81.90;;;;;;1904294;74;21083;-79
2022/05/17 14:46:20;;;;;;;3.25;1.82;;;33.30;75.70;;;;;;1902863;74;21090;-78
2022/05/17 14:49:16;;;;;;;3.90;1.70;;;33.10;76.50;;;;;;1926463;74;21110;-79
2022/05/17 14:52:08;;;;;;;4.33;1.75;;;33.10;75.50;;;;;;1906567;74;21055;-78
2022/05/17 14:54:59;;;;;;;3.12;1.77;;;33.30;73.20;;;;;;1904094;74;21607;-78
2022/05/17 14:57:51;;;;;;;4.60;2.08;;;33.50;71.10;;;;;;1924054;74;21098;-78
2022/05/17 15:00:43;;;;;;;3.37;1.80;;;33.40;71.50;;;;;;1912733;74;21279;-79
2022/05/17 15:03:36;;;;;;;3.62;1.75;;;33.50;69.20;;;;;;1912384;74;21054;-78
2022/05/17 15:06:48;;;;;;;3.90;1.95;;;33.60;69.10;;;;;;1915736;74;21587;-78
2022/05/17 15:09:29;;;;;;;6.17;2.45;;;33.80;69.20;;;;;;1920228;74;21086;-78
2022/05/17 15:12:22;;;;;;;4.30;1.85;;;34.20;69.40;;;;;;1904490;74;21121;-78
2022/05/17 15:15:15;;;;;;;4.17;2.00;;;34.30;69.30;;;;;;1908737;74;21113;-78
2022/05/17 15:18:11;;;;;;;4.80;2.45;;;34.50;68.80;;;;;;1906503;74;21047;-78
2022/05/17 15:21:02;;;;;;;6.42;2.62;;;34.80;69.20;;;;;;1887655;74;21131;-78
2022/05/17 15:23:54;;;;;;;5.58;2.35;;;35.20;69.30;;;;;;1882570;75;21066;-78
2022/05/17 15:26:46;;;;;;;5.35;2.40;;;35.10;68.90;;;;;;1884249;75;21071;-78
2022/05/17 15:29:39;;;;;;;6.25;2.72;;;35.40;68.20;;;;;;1887271;75;21507;-78
2022/05/17 15:32:32;;;;;;;4.83;2.80;;;35.00;69.00;;;;;;1882365;75;21063;-79
2022/05/17 15:35:26;;;;;;;7.15;3.27;;;34.90;70.00;;;;;;1894109;75;21502;-78
2022/05/17 15:38:22;;;;;;;5.85;2.40;;;34.80;70.00;;;;;;1915594;75;21091;-78
2022/05/17 15:41:15;;;;;;;6.70;2.60;;;34.80;69.30;;;;;;1902541;75;21156;-79
2022/05/17 15:44:09;;;;;;;4.22;2.55;;;35.10;69.70;;;;;;1897719;75;21084;-79
2022/05/17 15:53:28;;;;;;;7.35;3.05;;;34.60;71.70;;;;;;1906032;75;21113;-78
2022/05/17 15:56:22;;;;;;;5.00;2.80;;;35.10;70.50;;;;;;1906268;75;21066;-78